Time;durP1;ratioP1;P1;durP2;ratioP2;P2;SDS_P1;SDS_P2;PMS_P1;PMS_P2;Temp;Humidity;BMP_temperature;BMP_pressure;BME280_temperature;BME280_humidity;BME280_pressure;Samples;Min_cycle;Max_cycle;Signal;HPM_P1;HPM_P2
2023/07/14 00:01:31;;;;;;;6.40;3.00;;;24.40;36.00;;;;;;5053492;28;20443;-53
2023/07/14 00:03:58;;;;;;;6.20;2.57;;;24.40;35.70;;;;;;5053677;28;20432;-53
2023/07/14 00:06:23;;;;;;;3.97;2.80;;;24.30;34.70;;;;;;5053516;28;20485;-55
2023/07/14 00:08:50;;;;;;;5.57;3.03;;;24.30;34.90;;;;;;5053601;28;20482;-53
2023/07/14 00:11:18;;;;;;;7.17;3.10;;;24.20;35.40;;;;;;5053578;28;20180;-56
2023/07/14 00:13:45;;;;;;;5.03;2.63;;;24.20;35.90;;;;;;5053365;28;20807;-53
2023/07/14 00:16:19;;;;;;;4.07;2.87;;;24.20;36.20;;;;;;5053595;28;20431;-53
2023/07/14 00:18:45;;;;;;;5.13;2.90;;;24.10;36.20;;;;;;5053194;28;20498;-53
2023/07/14 00:21:22;;;;;;;5.67;2.90;;;24.00;36.10;;;;;;5052922;28;20955;-53
2023/07/14 00:23:49;;;;;;;6.87;2.80;;;24.10;36.50;;;;;;5053269;28;20946;-56
2023/07/14 00:26:20;;;;;;;4.10;2.90;;;24.00;36.20;;;;;;5053311;28;20486;-53
2023/07/14 00:28:48;;;;;;;5.80;3.00;;;24.00;36.40;;;;;;5053145;28;20408;-56
2023/07/14 00:31:16;;;;;;;6.70;3.23;;;24.00;36.50;;;;;;5052848;28;20887;-54
2023/07/14 00:33:43;;;;;;;5.60;3.00;;;23.90;36.80;;;;;;5053054;28;20446;-54
2023/07/14 00:36:11;;;;;;;5.33;3.10;;;23.80;36.50;;;;;;5053226;28;20481;-56
2023/07/14 00:38:37;;;;;;;5.63;3.60;;;23.70;35.80;;;;;;5052837;28;20892;-54
2023/07/14 00:41:07;;;;;;;4.03;3.50;;;23.70;36.20;;;;;;5052563;28;20462;-53
2023/07/14 00:43:34;;;;;;;3.60;2.63;;;23.60;36.70;;;;;;5052762;28;20495;-55
2023/07/14 00:46:01;;;;;;;4.13;3.20;;;23.60;37.10;;;;;;5052839;28;20403;-55
2023/07/14 00:48:29;;;;;;;5.07;3.20;;;23.60;37.10;;;;;;5052612;28;20412;-53
2023/07/14 00:51:00;;;;;;;4.17;3.10;;;23.60;37.50;;;;;;5052399;28;20481;-56
2023/07/14 00:53:38;;;;;;;6.00;3.37;;;23.60;37.50;;;;;;5052839;28;20428;-53
2023/07/14 00:56:10;;;;;;;5.33;3.80;;;23.60;37.20;;;;;;5052694;28;20407;-54
2023/07/14 00:58:38;;;;;;;7.20;2.60;;;23.50;37.50;;;;;;5052445;28;20834;-55
2023/07/14 01:01:10;;;;;;;3.17;2.30;;;23.40;37.40;;;;;;5052120;28;20854;-53
2023/07/14 01:03:45;;;;;;;5.50;3.03;;;23.40;37.50;;;;;;5052665;28;20416;-55
2023/07/14 01:06:28;;;;;;;4.80;3.20;;;23.40;37.80;;;;;;5052728;28;20411;-55
2023/07/14 01:09:09;;;;;;;4.03;3.57;;;23.20;37.60;;;;;;5052246;28;20407;-53
2023/07/14 01:11:51;;;;;;;5.73;3.43;;;23.20;37.30;;;;;;5052425;28;20479;-53
2023/07/14 01:14:23;;;;;;;4.37;3.07;;;23.10;37.90;;;;;;5052321;28;20435;-53
2023/07/14 01:16:53;;;;;;;4.13;3.13;;;23.10;38.00;;;;;;5052326;28;20412;-55
2023/07/14 01:19:28;;;;;;;4.50;2.87;;;23.10;38.10;;;;;;5052030;28;20474;-53
2023/07/14 01:22:13;;;;;;;5.20;3.00;;;23.10;38.40;;;;;;5052534;28;20954;-52
2023/07/14 01:24:49;;;;;;;3.93;3.40;;;23.10;38.50;;;;;;5052195;28;20411;-54
2023/07/14 01:27:15;;;;;;;5.90;3.50;;;23.10;38.70;;;;;;5052253;28;20469;-57
2023/07/14 01:29:43;;;;;;;4.90;3.27;;;23.10;38.50;;;;;;5051938;28;20836;-53
2023/07/14 01:32:17;;;;;;;4.90;3.53;;;23.10;38.60;;;;;;5052011;28;20588;-54
2023/07/14 01:34:44;;;;;;;5.43;3.50;;;23.10;38.80;;;;;;5052100;28;20840;-56
2023/07/14 01:37:12;;;;;;;7.43;3.57;;;23.00;38.80;;;;;;5052189;28;20416;-54
2023/07/14 01:39:39;;;;;;;4.30;3.20;;;23.00;38.70;;;;;;5051735;28;20439;-55
2023/07/14 01:42:05;;;;;;;6.50;2.70;;;22.90;38.80;;;;;;5051928;28;20466;-56
2023/07/14 01:44:31;;;;;;;4.87;3.73;;;22.90;38.60;;;;;;5051928;28;20395;-53
2023/07/14 01:46:57;;;;;;;3.97;3.43;;;22.90;39.30;;;;;;5051868;28;20415;-53
2023/07/14 01:49:43;;;;;;;6.53;3.23;;;23.00;38.80;;;;;;5051780;28;20228;-54
2023/07/14 01:52:14;;;;;;;4.40;3.10;;;23.10;39.10;;;;;;5051970;28;20414;-53
2023/07/14 01:54:50;;;;;;;4.10;2.90;;;23.10;39.40;;;;;;5051808;28;20464;-55
2023/07/14 01:57:20;;;;;;;12.07;3.70;;;23.10;39.50;;;;;;5051753;28;20403;-53
2023/07/14 01:59:51;;;;;;;6.77;3.50;;;23.00;39.30;;;;;;5051834;28;20431;-55
2023/07/14 02:02:26;;;;;;;4.60;2.77;;;23.00;39.10;;;;;;5051759;28;20504;-52
2023/07/14 02:04:52;;;;;;;6.20;3.10;;;23.00;39.10;;;;;;5051712;28;20856;-53
2023/07/14 02:07:18;;;;;;;5.77;4.10;;;23.00;39.20;;;;;;5052062;28;20418;-55
2023/07/14 02:09:45;;;;;;;6.30;3.50;;;23.00;39.10;;;;;;5051312;28;20432;-53
2023/07/14 02:12:17;;;;;;;6.60;3.33;;;23.00;39.10;;;;;;5053193;28;20761;-53
2023/07/14 02:14:50;;;;;;;4.80;3.57;;;22.90;39.30;;;;;;5055504;28;20435;-56
2023/07/14 02:17:27;;;;;;;4.80;3.80;;;23.00;39.30;;;;;;5055718;28;20407;-53
2023/07/14 02:19:54;;;;;;;4.30;2.90;;;22.90;39.50;;;;;;5055582;28;20489;-55
2023/07/14 02:22:21;;;;;;;5.00;3.23;;;22.90;39.40;;;;;;5055380;28;20463;-56
2023/07/14 02:24:48;;;;;;;5.57;3.20;;;22.90;39.50;;;;;;5055462;28;20422;-53
2023/07/14 02:27:14;;;;;;;5.27;3.77;;;22.90;39.50;;;;;;5055393;28;20408;-53
2023/07/14 02:29:40;;;;;;;4.70;3.13;;;22.90;39.20;;;;;;5055154;28;20431;-55
2023/07/14 02:32:09;;;;;;;6.10;3.93;;;22.90;39.40;;;;;;5054237;28;20899;-56
2023/07/14 02:34:39;;;;;;;5.20;3.40;;;22.90;39.20;;;;;;5055210;28;20437;-52
2023/07/14 02:38:03;;;;;;;4.47;3.57;;;22.90;39.30;;;;;;5055299;28;20962;-56
2023/07/14 02:41:03;;;;;;;5.53;3.30;;;22.90;39.10;;;;;;5054371;28;20527;-53
2023/07/14 02:43:29;;;;;;;4.53;3.63;;;22.20;38.80;;;;;;5055374;28;20415;-55
2023/07/14 02:46:14;;;;;;;4.83;3.90;;;22.70;39.30;;;;;;5055105;28;20399;-53
2023/07/14 02:48:44;;;;;;;4.20;3.30;;;22.70;39.10;;;;;;5055110;28;20228;-55
2023/07/14 02:51:11;;;;;;;9.17;3.90;;;22.60;39.10;;;;;;5054855;28;20475;-53
2023/07/14 02:53:37;;;;;;;3.73;3.33;;;22.50;39.40;;;;;;5055212;28;20414;-53
2023/07/14 02:56:03;;;;;;;4.60;3.40;;;22.50;39.40;;;;;;5055051;28;20404;-55
2023/07/14 02:58:30;;;;;;;4.50;4.10;;;22.60;39.50;;;;;;5054887;28;20252;-53
2023/07/14 03:00:56;;;;;;;9.03;3.83;;;22.60;39.70;;;;;;5054617;28;20451;-53
2023/07/14 03:03:22;;;;;;;5.57;3.80;;;22.50;39.70;;;;;;5054842;28;20403;-55
2023/07/14 03:05:50;;;;;;;5.37;4.00;;;22.50;39.90;;;;;;5054656;28;20248;-53
2023/07/14 03:08:16;;;;;;;4.40;3.40;;;22.50;39.90;;;;;;5054608;28;20499;-55
2023/07/14 03:10:47;;;;;;;4.90;3.50;;;22.50;40.70;;;;;;5054265;28;20448;-52
2023/07/14 03:13:15;;;;;;;5.67;3.80;;;22.60;40.00;;;;;;5054592;28;20424;-54
2023/07/14 03:15:43;;;;;;;4.10;3.40;;;22.60;39.90;;;;;;5053420;28;20479;-56
2023/07/14 03:18:09;;;;;;;5.00;3.73;;;22.60;40.10;;;;;;5054460;28;20407;-56
2023/07/14 03:20:34;;;;;;;6.73;3.70;;;22.60;40.00;;;;;;5053931;28;20510;-53
2023/07/14 03:23:00;;;;;;;5.17;4.50;;;22.60;40.00;;;;;;5053799;28;20446;-55
2023/07/14 03:25:26;;;;;;;4.47;3.40;;;22.70;40.30;;;;;;5053928;28;20521;-54
2023/07/14 03:27:52;;;;;;;3.60;3.30;;;22.60;39.90;;;;;;5054299;28;20200;-53
2023/07/14 03:30:18;;;;;;;6.77;3.50;;;22.70;39.90;;;;;;5054072;28;20419;-56
2023/07/14 03:32:44;;;;;;;7.57;3.37;;;22.70;39.90;;;;;;5054280;28;20935;-53
2023/07/14 03:35:09;;;;;;;8.73;3.90;;;22.70;39.60;;;;;;5054068;28;20412;-53
2023/07/14 03:37:35;;;;;;;4.70;3.00;;;22.70;39.00;;;;;;5054266;28;20192;-53
2023/07/14 03:40:01;;;;;;;3.80;3.23;;;22.70;39.30;;;;;;5053949;28;20193;-53
2023/07/14 03:42:27;;;;;;;4.20;2.83;;;22.70;39.50;;;;;;5053890;28;20201;-55
2023/07/14 03:44:53;;;;;;;3.73;2.60;;;22.70;39.60;;;;;;5054060;28;20435;-53
2023/07/14 03:47:19;;;;;;;5.43;3.50;;;22.70;39.90;;;;;;5054035;28;20438;-56
2023/07/14 03:49:44;;;;;;;4.20;3.30;;;22.70;40.00;;;;;;5053513;28;20189;-52
2023/07/14 03:52:10;;;;;;;4.53;3.27;;;22.70;40.00;;;;;;5053908;28;20602;-56
2023/07/14 03:54:36;;;;;;;4.60;3.43;;;22.70;39.20;;;;;;5053761;28;20174;-53
2023/07/14 03:57:02;;;;;;;17.13;4.50;;;22.80;39.20;;;;;;5053928;28;20173;-53
2023/07/14 03:59:27;;;;;;;4.73;3.27;;;22.80;39.00;;;;;;5053524;28;20197;-53
2023/07/14 04:01:54;;;;;;;5.13;3.30;;;22.80;39.10;;;;;;5053662;28;20275;-55
2023/07/14 04:04:22;;;;;;;5.40;3.20;;;22.80;39.60;;;;;;5053570;28;20400;-52
2023/07/14 04:06:48;;;;;;;6.57;3.40;;;22.80;39.80;;;;;;5053809;28;20411;-55
2023/07/14 04:09:14;;;;;;;5.57;3.30;;;22.80;40.30;;;;;;5053455;28;20430;-56
2023/07/14 04:11:40;;;;;;;5.80;3.67;;;22.80;39.90;;;;;;5053448;28;20412;-54
2023/07/14 04:14:07;;;;;;;5.90;3.30;;;22.80;39.60;;;;;;5053442;28;20669;-54
2023/07/14 04:16:35;;;;;;;4.10;2.60;;;22.80;39.00;;;;;;5053294;28;20645;-55
2023/07/14 04:19:02;;;;;;;4.33;3.53;;;22.90;39.00;;;;;;5053203;28;20975;-54
2023/07/14 04:21:27;;;;;;;6.30;3.10;;;22.90;39.50;;;;;;5053299;28;20459;-54
2023/07/14 04:23:57;;;;;;;6.63;3.60;;;22.90;39.90;;;;;;5053202;28;20737;-56
2023/07/14 04:26:24;;;;;;;4.90;2.93;;;22.90;39.90;;;;;;5053298;28;20258;-56
2023/07/14 04:28:50;;;;;;;13.93;2.80;;;22.90;39.20;;;;;;5053209;28;20491;-53
2023/07/14 04:31:16;;;;;;;3.60;3.00;;;23.00;39.20;;;;;;5052889;28;20494;-55
2023/07/14 04:33:48;;;;;;;4.83;2.87;;;23.00;39.70;;;;;;5053009;28;20903;-53
2023/07/14 04:36:15;;;;;;;4.80;3.20;;;23.00;39.70;;;;;;5051445;28;20573;-53
2023/07/14 04:38:42;;;;;;;4.07;3.33;;;23.10;39.80;;;;;;5052951;28;20422;-53
2023/07/14 04:41:12;;;;;;;10.23;3.10;;;23.10;39.10;;;;;;5052730;28;20456;-55
2023/07/14 04:43:40;;;;;;;4.43;3.07;;;23.10;39.80;;;;;;5052891;28;20403;-53
2023/07/14 04:46:05;;;;;;;6.00;3.40;;;23.10;39.70;;;;;;5052980;28;20818;-53
2023/07/14 04:48:31;;;;;;;2.90;2.60;;;23.10;39.60;;;;;;5052732;28;20407;-55
2023/07/14 04:50:57;;;;;;;4.07;3.30;;;23.10;40.00;;;;;;5052480;28;20192;-55
2023/07/14 04:53:23;;;;;;;5.70;3.23;;;23.20;39.40;;;;;;5051402;28;20173;-52
2023/07/14 04:55:48;;;;;;;9.77;3.27;;;23.20;38.60;;;;;;5052638;28;20173;-57
2023/07/14 04:58:16;;;;;;;10.63;3.23;;;23.20;38.30;;;;;;5052666;28;20716;-53
2023/07/14 05:00:44;;;;;;;5.83;3.33;;;23.20;38.30;;;;;;5052148;28;20265;-56
2023/07/14 05:03:10;;;;;;;5.57;3.33;;;23.20;38.70;;;;;;5052651;28;20403;-53
2023/07/14 05:05:36;;;;;;;6.43;3.40;;;23.30;39.20;;;;;;5052358;28;20919;-53
2023/07/14 05:08:03;;;;;;;5.73;3.30;;;23.40;39.10;;;;;;5052351;28;20820;-55
2023/07/14 05:10:32;;;;;;;5.23;3.60;;;23.40;38.50;;;;;;5052035;28;20804;-56
2023/07/14 05:12:58;;;;;;;4.67;2.83;;;23.50;38.40;;;;;;5052280;28;20491;-54
2023/07/14 05:15:25;;;;;;;4.77;3.20;;;23.60;38.00;;;;;;5052446;28;20403;-56
2023/07/14 05:17:52;;;;;;;7.60;3.53;;;23.60;38.60;;;;;;5052274;28;20422;-53
2023/07/14 05:20:19;;;;;;;4.73;3.97;;;23.50;39.00;;;;;;5052064;28;20496;-54
2023/07/14 05:22:48;;;;;;;8.53;3.13;;;23.60;39.00;;;;;;5052156;28;20455;-57
2023/07/14 05:25:15;;;;;;;6.17;3.80;;;23.60;39.30;;;;;;5052155;28;20406;-53
2023/07/14 05:27:45;;;;;;;5.43;3.50;;;23.60;38.40;;;;;;5051987;28;20408;-53
2023/07/14 05:30:17;;;;;;;5.50;2.83;;;23.60;39.00;;;;;;5051929;28;20456;-55
2023/07/14 05:32:44;;;;;;;5.93;3.40;;;23.60;39.50;;;;;;5052037;28;20450;-53
2023/07/14 05:35:11;;;;;;;4.67;3.40;;;23.60;39.40;;;;;;5052107;28;20502;-53
2023/07/14 05:37:37;;;;;;;4.60;3.47;;;23.60;38.90;;;;;;5051905;28;20808;-56
2023/07/14 05:40:08;;;;;;;6.77;3.70;;;23.80;38.60;;;;;;5051613;28;20935;-53
2023/07/14 05:42:34;;;;;;;5.17;3.43;;;23.80;38.40;;;;;;5051863;28;20452;-53
2023/07/14 05:44:59;;;;;;;5.40;4.13;;;24.00;38.50;;;;;;5052046;28;20419;-56
2023/07/14 05:47:25;;;;;;;6.43;2.83;;;24.10;37.90;;;;;;5051336;28;20407;-53
2023/07/14 05:49:51;;;;;;;7.40;3.40;;;24.10;38.10;;;;;;5051769;28;20212;-54
2023/07/14 05:52:18;;;;;;;9.70;4.03;;;24.30;37.50;;;;;;5051833;28;20178;-53
2023/07/14 05:54:45;;;;;;;6.50;3.00;;;24.30;37.20;;;;;;5051709;28;20404;-55
2023/07/14 05:57:10;;;;;;;4.70;3.37;;;24.40;37.30;;;;;;5051662;28;20416;-53
2023/07/14 05:59:37;;;;;;;4.40;3.67;;;24.50;37.30;;;;;;5051686;28;20436;-53
2023/07/14 06:02:03;;;;;;;4.10;3.20;;;24.60;36.90;;;;;;5051831;28;20569;-56
2023/07/14 06:04:30;;;;;;;5.90;3.60;;;24.70;37.10;;;;;;5051782;28;20895;-53
2023/07/14 06:06:55;;;;;;;7.10;3.80;;;24.80;37.00;;;;;;5051995;28;20644;-56
2023/07/14 06:09:21;;;;;;;5.20;3.33;;;24.90;36.40;;;;;;5051360;28;20458;-53
2023/07/14 06:11:47;;;;;;;4.97;3.00;;;25.00;36.30;;;;;;5051673;28;20256;-54
2023/07/14 06:14:12;;;;;;;9.07;2.90;;;25.10;36.50;;;;;;5051631;28;20600;-55
2023/07/14 06:16:38;;;;;;;4.37;3.53;;;25.20;36.50;;;;;;5051547;28;20626;-53
2023/07/14 06:19:04;;;;;;;5.27;2.87;;;25.30;35.90;;;;;;5051226;28;20197;-53
2023/07/14 06:21:30;;;;;;;4.37;2.80;;;25.30;35.60;;;;;;5050989;28;20672;-56
2023/07/14 06:23:56;;;;;;;4.90;3.00;;;25.40;35.80;;;;;;5050222;28;20411;-56
2023/07/14 06:26:22;;;;;;;4.43;3.30;;;25.40;35.40;;;;;;5049950;28;20157;-54
2023/07/14 06:28:47;;;;;;;4.57;3.00;;;25.50;35.40;;;;;;5051426;28;20522;-55
2023/07/14 06:31:14;;;;;;;7.00;4.27;;;25.50;35.50;;;;;;5051135;28;20175;-56
2023/07/14 06:33:40;;;;;;;4.70;3.53;;;25.60;34.70;;;;;;5051476;28;20568;-53
2023/07/14 06:36:06;;;;;;;6.57;3.67;;;25.60;34.10;;;;;;5051424;28;20494;-56
2023/07/14 06:38:34;;;;;;;6.70;3.43;;;25.60;34.30;;;;;;5051362;28;20619;-54
2023/07/14 06:41:03;;;;;;;6.53;3.17;;;25.70;33.60;;;;;;5051272;28;20466;-54
2023/07/14 06:43:30;;;;;;;4.77;3.90;;;25.60;34.20;;;;;;5049898;28;20444;-56
2023/07/14 06:45:57;;;;;;;7.43;4.03;;;25.70;34.50;;;;;;5051444;28;20487;-54
2023/07/14 06:48:24;;;;;;;3.43;2.43;;;25.90;33.80;;;;;;5051039;28;20410;-53
2023/07/14 06:50:51;;;;;;;4.63;3.20;;;26.00;34.20;;;;;;5050632;28;20972;-56
2023/07/14 06:53:17;;;;;;;4.40;3.30;;;26.10;33.90;;;;;;5051201;28;20439;-53
2023/07/14 06:55:43;;;;;;;5.47;3.90;;;26.20;33.80;;;;;;5050959;28;20403;-54
2023/07/14 06:58:09;;;;;;;4.73;3.03;;;26.30;32.60;;;;;;5052212;28;20395;-55
2023/07/14 07:00:35;;;;;;;11.83;3.60;;;26.30;33.00;;;;;;5054358;28;20415;-52
2023/07/14 07:03:05;;;;;;;6.00;3.07;;;26.40;33.40;;;;;;5054315;28;20455;-55
2023/07/14 07:05:37;;;;;;;5.43;3.30;;;26.40;33.60;;;;;;5054223;28;20822;-52
2023/07/14 07:08:04;;;;;;;7.57;3.70;;;26.60;33.10;;;;;;5054735;28;20407;-53
2023/07/14 07:10:30;;;;;;;5.60;3.27;;;26.70;32.10;;;;;;5053918;28;20435;-56
2023/07/14 07:12:56;;;;;;;7.43;3.50;;;26.70;31.30;;;;;;5054311;28;20419;-53
2023/07/14 07:15:22;;;;;;;4.13;2.80;;;26.60;31.30;;;;;;5054114;28;20454;-53
2023/07/14 07:17:47;;;;;;;4.23;3.10;;;26.60;32.30;;;;;;5054391;28;20195;-55
2023/07/14 07:20:13;;;;;;;8.03;3.17;;;26.70;32.70;;;;;;5053550;28;20327;-53
2023/07/14 07:22:40;;;;;;;4.80;3.07;;;26.70;31.40;;;;;;5054103;28;20197;-56
2023/07/14 07:25:07;;;;;;;4.90;2.90;;;26.70;32.40;;;;;;5054263;28;20491;-55
2023/07/14 07:27:33;;;;;;;10.63;3.20;;;26.80;32.70;;;;;;5053916;28;20408;-55
2023/07/14 07:30:00;;;;;;;4.47;2.73;;;26.90;31.40;;;;;;5053736;28;20533;-53
2023/07/14 07:32:27;;;;;;;7.90;2.83;;;27.00;30.40;;;;;;5053769;28;20450;-53
2023/07/14 07:34:59;;;;;;;4.90;2.70;;;27.10;31.10;;;;;;5053838;28;20767;-55
2023/07/14 07:37:29;;;;;;;7.37;3.20;;;27.20;31.20;;;;;;5053828;28;20785;-56
2023/07/14 07:39:55;;;;;;;4.57;2.90;;;27.30;30.30;;;;;;5053598;28;20442;-52
2023/07/14 07:42:22;;;;;;;4.33;2.70;;;27.30;30.90;;;;;;5071278;28;20458;-53
2023/07/14 07:44:48;;;;;;;3.60;3.10;;;27.40;30.80;;;;;;5073957;28;20506;-56
2023/07/14 07:47:14;;;;;;;3.60;2.97;;;27.50;30.20;;;;;;5073887;28;20493;-56
2023/07/14 07:49:39;;;;;;;3.73;2.10;;;27.60;30.80;;;;;;5073619;28;20196;-55
2023/07/14 07:52:07;;;;;;;4.30;2.60;;;27.70;30.50;;;;;;5073959;28;20173;-54
2023/07/14 07:54:32;;;;;;;4.07;2.70;;;27.80;29.60;;;;;;5073960;28;20173;-54
2023/07/14 07:56:58;;;;;;;3.07;2.77;;;27.90;29.90;;;;;;5073884;28;20407;-53
2023/07/14 07:59:24;;;;;;;3.53;2.67;;;27.90;29.40;;;;;;5073508;28;20603;-56
2023/07/14 08:01:50;;;;;;;3.10;2.40;;;28.00;30.00;;;;;;5073602;28;20490;-53
2023/07/14 08:04:18;;;;;;;8.57;2.30;;;28.00;28.40;;;;;;5073851;28;20207;-56
2023/07/14 08:06:43;;;;;;;7.93;2.67;;;28.00;30.10;;;;;;5073545;28;20640;-53
2023/07/14 08:09:10;;;;;;;3.17;2.53;;;28.10;29.00;;;;;;5072974;28;20506;-55
2023/07/14 08:11:36;;;;;;;3.13;2.03;;;28.20;30.60;;;;;;5073349;28;20203;-53
2023/07/14 08:14:03;;;;;;;2.77;1.93;;;28.30;30.30;;;;;;5073313;28;20430;-53
2023/07/14 08:16:29;;;;;;;4.03;2.43;;;28.40;29.20;;;;;;5073392;28;20522;-56
2023/07/14 08:18:55;;;;;;;8.30;2.43;;;28.40;29.10;;;;;;5073403;28;20411;-55
2023/07/14 08:21:22;;;;;;;4.50;2.40;;;28.40;29.40;;;;;;5073075;28;20454;-53
2023/07/14 08:23:48;;;;;;;5.97;3.47;;;28.50;29.00;;;;;;5073400;28;20411;-55
2023/07/14 08:26:15;;;;;;;7.50;3.30;;;28.40;27.20;;;;;;5073209;28;20431;-55
2023/07/14 08:28:41;;;;;;;4.60;2.70;;;28.40;28.70;;;;;;5073007;28;20413;-54
2023/07/14 08:31:10;;;;;;;7.10;2.40;;;28.40;28.50;;;;;;5072388;28;20880;-53
2023/07/14 08:33:36;;;;;;;3.23;2.00;;;28.50;29.30;;;;;;5072975;28;20691;-55
2023/07/14 08:36:04;;;;;;;6.20;2.63;;;28.60;28.10;;;;;;5072953;28;20403;-57
2023/07/14 08:38:32;;;;;;;5.70;2.60;;;28.60;27.90;;;;;;5073103;28;20895;-54
2023/07/14 08:41:30;;;;;;;7.60;2.50;;;28.60;28.70;;;;;;5072543;28;20509;-54
2023/07/14 08:44:09;;;;;;;5.10;3.00;;;28.70;28.50;;;;;;5072120;28;20449;-56
2023/07/14 08:46:35;;;;;;;3.77;2.10;;;28.80;25.10;;;;;;5072664;28;20407;-53
2023/07/14 08:49:15;;;;;;;5.00;2.27;;;28.80;26.50;;;;;;5072697;28;21012;-55
2023/07/14 08:51:45;;;;;;;3.40;2.43;;;28.80;27.60;;;;;;5072743;28;20620;-53
2023/07/14 08:54:26;;;;;;;4.73;2.70;;;28.90;27.90;;;;;;5072665;28;20819;-56
2023/07/14 08:56:52;;;;;;;4.80;2.10;;;29.00;25.20;;;;;;5072691;28;20438;-53
2023/07/14 08:59:31;;;;;;;4.00;2.13;;;28.90;25.80;;;;;;5072407;28;20868;-53
2023/07/14 09:01:59;;;;;;;8.20;2.13;;;29.00;25.90;;;;;;5072397;28;20879;-53
2023/07/14 09:04:34;;;;;;;4.20;2.30;;;28.90;24.30;;;;;;5072369;28;20737;-56
2023/07/14 09:07:01;;;;;;;8.37;2.60;;;28.90;26.30;;;;;;5072398;28;20408;-53
2023/07/14 09:09:32;;;;;;;6.10;2.57;;;29.10;27.10;;;;;;5072171;28;20502;-53
2023/07/14 09:12:44;;;;;;;7.90;4.53;;;29.20;27.10;;;;;;5072404;28;20403;-56
2023/07/14 09:15:23;;;;;;;3.90;2.60;;;29.30;26.10;;;;;;5063906;28;20484;-57
2023/07/14 09:18:17;;;;;;;10.37;2.80;;;29.40;27.10;;;;;;5072475;28;20399;-53
2023/07/14 09:21:25;;;;;;;3.90;2.37;;;29.60;28.20;;;;;;5071728;28;20522;-53
2023/07/14 09:24:07;;;;;;;9.83;2.97;;;29.70;26.80;;;;;;5069938;28;20427;-56
2023/07/14 09:26:33;;;;;;;5.30;2.53;;;29.70;26.00;;;;;;5071969;28;20903;-53
2023/07/14 09:29:08;;;;;;;4.00;2.77;;;29.70;26.20;;;;;;5072261;28;20432;-56
2023/07/14 09:31:53;;;;;;;4.90;2.83;;;29.80;26.00;;;;;;5071945;28;20175;-56
2023/07/14 09:34:38;;;;;;;3.70;2.13;;;29.90;25.20;;;;;;5072119;28;20764;-54
2023/07/14 09:37:37;;;;;;;6.13;3.13;;;30.00;28.00;;;;;;5072033;28;20446;-54
2023/07/14 09:40:29;;;;;;;18.23;14.07;;;30.20;26.20;;;;;;5071621;28;20429;-54
2023/07/14 09:42:56;;;;;;;4.40;3.40;;;30.30;26.90;;;;;;5071637;28;20471;-57
2023/07/14 09:45:31;;;;;;;3.43;3.00;;;30.30;26.60;;;;;;5071977;28;20403;-53
2023/07/14 09:48:05;;;;;;;5.10;2.47;;;30.50;27.20;;;;;;5071967;28;20731;-53
2023/07/14 09:50:35;;;;;;;12.80;8.20;;;30.50;26.90;;;;;;5071683;28;20427;-56
2023/07/14 09:53:07;;;;;;;6.20;4.53;;;30.50;25.80;;;;;;5072087;28;20433;-53
2023/07/14 09:55:56;;;;;;;5.00;2.47;;;30.60;26.20;;;;;;5072032;28;20407;-53
2023/07/14 09:58:28;;;;;;;4.20;2.20;;;30.70;25.00;;;;;;5071895;28;20497;-54
2023/07/14 10:00:57;;;;;;;7.50;3.20;;;30.70;23.50;;;;;;5071691;28;20434;-54
2023/07/14 10:03:30;;;;;;;8.13;2.80;;;30.60;24.60;;;;;;5071796;28;20548;-56
2023/07/14 10:06:11;;;;;;;5.13;2.50;;;30.50;22.90;;;;;;5071892;28;20413;-53
2023/07/14 10:08:57;;;;;;;11.10;2.87;;;30.30;22.10;;;;;;5072042;28;20411;-54
2023/07/14 10:11:43;;;;;;;4.80;2.53;;;30.20;24.80;;;;;;5071600;28;20898;-53
2023/07/14 10:14:27;;;;;;;6.50;2.30;;;30.10;25.80;;;;;;5071666;28;20422;-56
2023/07/14 10:16:57;;;;;;;4.20;2.20;;;30.20;24.90;;;;;;5071680;28;20904;-53
2023/07/14 10:19:33;;;;;;;4.30;2.63;;;30.10;24.40;;;;;;5071394;28;20525;-56
2023/07/14 10:22:05;;;;;;;3.00;2.17;;;30.00;24.70;;;;;;5071601;28;20446;-53
2023/07/14 10:24:31;;;;;;;3.60;2.20;;;30.00;25.10;;;;;;5071691;28;20872;-53
2023/07/14 10:27:02;;;;;;;5.40;2.10;;;30.10;24.70;;;;;;5071620;28;20425;-55
2023/07/14 10:29:47;;;;;;;6.47;2.53;;;30.10;25.20;;;;;;5071332;28;20503;-54
2023/07/14 10:32:25;;;;;;;3.80;2.30;;;30.00;25.00;;;;;;5071814;28;20403;-54
2023/07/14 10:35:01;;;;;;;3.60;2.40;;;30.00;25.10;;;;;;5075285;28;20400;-56
2023/07/14 10:37:52;;;;;;;3.17;2.30;;;30.00;26.30;;;;;;5075253;28;20417;-53
2023/07/14 10:40:22;;;;;;;5.83;3.20;;;30.00;24.80;;;;;;5074697;28;20439;-53
2023/07/14 10:43:04;;;;;;;4.40;2.87;;;30.10;24.10;;;;;;5075297;28;20462;-53
2023/07/14 10:45:34;;;;;;;4.33;2.40;;;30.30;23.40;;;;;;5075198;28;20407;-56
2023/07/14 10:48:11;;;;;;;12.20;2.90;;;30.10;23.60;;;;;;5075202;28;20409;-54
2023/07/14 10:50:41;;;;;;;5.90;2.90;;;30.10;22.80;;;;;;5074930;28;20437;-53
2023/07/14 10:53:16;;;;;;;11.50;2.90;;;30.10;24.60;;;;;;5075176;28;20438;-57
2023/07/14 10:55:43;;;;;;;7.10;2.20;;;30.30;24.50;;;;;;5074946;28;20415;-57
2023/07/14 10:58:39;;;;;;;3.77;2.50;;;30.40;24.50;;;;;;5075134;28;20416;-54
2023/07/14 11:01:32;;;;;;;5.80;2.83;;;30.60;23.60;;;;;;5074538;28;20556;-53
2023/07/14 11:04:23;;;;;;;4.20;2.80;;;30.70;25.30;;;;;;5074744;28;20468;-55
2023/07/14 11:06:53;;;;;;;4.00;3.07;;;30.90;26.20;;;;;;5074718;28;20794;-53
2023/07/14 11:09:19;;;;;;;3.60;2.87;;;31.00;23.30;;;;;;5074408;28;20421;-52
2023/07/14 11:11:53;;;;;;;3.80;2.20;;;31.10;22.90;;;;;;5073385;28;20407;-54
2023/07/14 11:14:44;;;;;;;6.50;2.37;;;31.20;22.90;;;;;;5074546;28;20735;-53
2023/07/14 11:17:26;;;;;;;4.70;3.03;;;31.20;22.10;;;;;;5074539;28;20441;-56
2023/07/14 11:20:08;;;;;;;5.90;3.37;;;31.20;23.60;;;;;;5074446;28;20427;-53
2023/07/14 11:22:43;;;;;;;3.10;2.20;;;31.30;24.60;;;;;;5074790;28;20438;-56
2023/07/14 11:25:44;;;;;;;4.30;2.83;;;31.40;23.60;;;;;;5074751;28;20394;-53
2023/07/14 11:28:22;;;;;;;3.63;2.60;;;31.40;20.00;;;;;;5074366;28;20409;-55
2023/07/14 11:30:55;;;;;;;6.33;2.63;;;31.20;22.20;;;;;;5072792;28;20438;-55
2023/07/14 11:33:42;;;;;;;4.20;2.00;;;31.30;24.60;;;;;;5074440;28;20407;-55
2023/07/14 11:36:15;;;;;;;4.40;2.47;;;31.50;21.80;;;;;;5074438;28;20395;-52
2023/07/14 11:39:04;;;;;;;4.03;2.47;;;31.70;23.20;;;;;;5072828;28;20411;-55
2023/07/14 11:41:31;;;;;;;7.33;3.20;;;31.80;23.00;;;;;;5073939;28;20969;-55
2023/07/14 11:44:00;;;;;;;7.33;2.53;;;32.00;22.10;;;;;;5073442;28;21002;-56
2023/07/14 11:46:26;;;;;;;5.40;2.43;;;32.10;22.40;;;;;;5073596;28;20399;-53
2023/07/14 11:48:52;;;;;;;5.80;2.10;;;32.10;22.80;;;;;;5073750;28;20417;-54
2023/07/14 11:51:19;;;;;;;4.90;2.90;;;32.20;24.20;;;;;;5073697;28;20496;-55
2023/07/14 11:54:05;;;;;;;3.97;2.57;;;32.30;23.20;;;;;;5074136;28;20586;-53
2023/07/14 11:56:38;;;;;;;3.83;2.33;;;32.40;21.00;;;;;;5074136;28;20487;-54
2023/07/14 11:59:17;;;;;;;3.00;2.00;;;32.40;20.30;;;;;;5073552;28;20472;-54
2023/07/14 12:01:46;;;;;;;5.70;2.60;;;32.30;19.90;;;;;;5073951;28;20446;-53
2023/07/14 12:04:34;;;;;;;4.60;2.60;;;32.20;20.70;;;;;;5073883;28;20461;-56
2023/07/14 12:07:16;;;;;;;5.37;2.13;;;32.40;22.70;;;;;;5073737;28;20449;-53
2023/07/14 12:10:00;;;;;;;3.87;2.47;;;32.50;22.50;;;;;;5073134;28;20426;-53
2023/07/14 12:12:27;;;;;;;5.40;2.33;;;32.80;22.70;;;;;;5073474;28;20411;-56
2023/07/14 12:14:53;;;;;;;5.93;2.33;;;32.90;22.50;;;;;;5073385;28;20439;-53
2023/07/14 12:17:42;;;;;;;5.97;2.47;;;32.90;21.10;;;;;;5073533;28;20949;-56
2023/07/14 12:20:27;;;;;;;3.60;1.90;;;32.80;21.90;;;;;;5072826;28;20193;-54
2023/07/14 12:23:10;;;;;;;7.47;2.70;;;32.60;20.00;;;;;;5073346;28;20450;-54
2023/07/14 12:25:41;;;;;;;3.60;2.67;;;32.30;20.40;;;;;;5073290;28;20430;-56
2023/07/14 12:28:36;;;;;;;4.83;2.70;;;32.20;20.50;;;;;;5073263;28;20407;-54
2023/07/14 12:31:11;;;;;;;7.63;2.33;;;32.20;20.60;;;;;;5072675;28;20439;-56
2023/07/14 12:33:38;;;;;;;4.27;2.43;;;32.20;20.50;;;;;;5073283;28;20418;-56
2023/07/14 12:36:05;;;;;;;5.10;2.80;;;32.30;22.40;;;;;;5073102;28;20493;-54
2023/07/14 12:38:33;;;;;;;4.23;2.60;;;32.40;21.80;;;;;;5073024;28;20464;-54
2023/07/14 12:40:59;;;;;;;3.87;2.00;;;32.40;20.10;;;;;;5072457;28;20422;-57
2023/07/14 12:43:35;;;;;;;7.20;2.60;;;32.50;19.50;;;;;;5072930;28;20424;-54
2023/07/14 12:46:03;;;;;;;4.37;3.00;;;32.50;20.30;;;;;;5073045;28;20423;-56
2023/07/14 12:48:32;;;;;;;4.00;2.83;;;32.80;22.20;;;;;;5072948;28;20472;-56
2023/07/14 12:51:09;;;;;;;4.27;2.90;;;33.00;21.20;;;;;;5072713;28;20502;-53
2023/07/14 12:53:35;;;;;;;3.00;2.27;;;33.30;22.20;;;;;;5072664;28;20391;-56
2023/07/14 12:56:06;;;;;;;3.67;3.27;;;33.30;20.00;;;;;;5072474;28;20490;-57
2023/07/14 12:58:32;;;;;;;4.70;2.80;;;33.20;20.00;;;;;;5072962;28;20245;-53
2023/07/14 13:00:57;;;;;;;7.47;3.23;;;33.00;20.10;;;;;;5072154;28;21010;-58
2023/07/14 13:03:26;;;;;;;3.80;2.43;;;32.70;20.00;;;;;;5072853;28;20169;-56
2023/07/14 13:05:52;;;;;;;4.83;2.57;;;32.60;19.70;;;;;;5072421;28;20168;-54